sensor_id;sensor_type;location;lat;lon;timestamp;P1;durP1;ratioP1;P2;durP2;ratioP2
29168;SDS011;16219;42.864;23.360;2023-02-01T00:00:00;5.15;;;3.10;;
29168;SDS011;16219;42.864;23.360;2023-02-01T00:02:27;7.63;;;3.75;;
29168;SDS011;16219;42.864;23.360;2023-02-01T00:04:54;3.83;;;3.00;;
29168;SDS011;16219;42.864;23.360;2023-02-01T00:07:21;5.72;;;3.47;;
29168;SDS011;16219;42.864;23.360;2023-02-01T00:09:50;3.47;;;2.17;;
29168;SDS011;16219;42.864;23.360;2023-02-01T00:12:17;4.38;;;2.78;;
29168;SDS011;16219;42.864;23.360;2023-02-01T00:14:44;6.85;;;2.35;;
29168;SDS011;16219;42.864;23.360;2023-02-01T00:17:13;10.10;;;4.25;;
29168;SDS011;16219;42.864;23.360;2023-02-01T00:19:40;9.05;;;4.18;;
29168;SDS011;16219;42.864;23.360;2023-02-01T00:22:07;6.93;;;5.15;;
29168;SDS011;16219;42.864;23.360;2023-02-01T00:24:34;3.90;;;2.55;;
29168;SDS011;16219;42.864;23.360;2023-02-01T00:27:03;2.97;;;2.15;;
29168;SDS011;16219;42.864;23.360;2023-02-01T00:29:30;5.40;;;3.55;;
29168;SDS011;16219;42.864;23.360;2023-02-01T00:31:57;9.65;;;3.75;;
29168;SDS011;16219;42.864;23.360;2023-02-01T00:34:24;3.53;;;3.22;;
29168;SDS011;16219;42.864;23.360;2023-02-01T00:36:51;4.45;;;3.10;;
29168;SDS011;16219;42.864;23.360;2023-02-01T00:39:18;5.55;;;3.33;;
29168;SDS011;16219;42.864;23.360;2023-02-01T00:41:45;3.92;;;2.85;;
29168;SDS011;16219;42.864;23.360;2023-02-01T00:44:14;3.92;;;2.78;;
29168;SDS011;16219;42.864;23.360;2023-02-01T00:46:41;4.57;;;3.30;;
29168;SDS011;16219;42.864;23.360;2023-02-01T00:49:08;6.90;;;3.17;;
29168;SDS011;16219;42.864;23.360;2023-02-01T00:51:36;13.88;;;4.15;;
29168;SDS011;16219;42.864;23.360;2023-02-01T00:54:03;3.67;;;2.85;;
29168;SDS011;16219;42.864;23.360;2023-02-01T00:56:30;5.32;;;2.78;;
29168;SDS011;16219;42.864;23.360;2023-02-01T00:58:58;4.40;;;2.75;;
29168;SDS011;16219;42.864;23.360;2023-02-01T01:01:27;9.65;;;5.07;;
29168;SDS011;16219;42.864;23.360;2023-02-01T01:03:55;9.15;;;5.15;;
29168;SDS011;16219;42.864;23.360;2023-02-01T01:06:24;9.45;;;4.95;;
29168;SDS011;16219;42.864;23.360;2023-02-01T01:08:53;6.30;;;4.43;;
29168;SDS011;16219;42.864;23.360;2023-02-01T01:11:21;6.05;;;4.18;;
29168;SDS011;16219;42.864;23.360;2023-02-01T01:13:51;11.50;;;4.68;;
29168;SDS011;16219;42.864;23.360;2023-02-01T01:16:19;5.90;;;3.95;;
29168;SDS011;16219;42.864;23.360;2023-02-01T01:18:48;3.40;;;3.10;;
29168;SDS011;16219;42.864;23.360;2023-02-01T01:21:16;4.35;;;3.75;;
29168;SDS011;16219;42.864;23.360;2023-02-01T01:23:44;6.85;;;2.85;;
29168;SDS011;16219;42.864;23.360;2023-02-01T01:26:13;6.60;;;3.72;;
29168;SDS011;16219;42.864;23.360;2023-02-01T01:28:42;10.35;;;3.55;;
29168;SDS011;16219;42.864;23.360;2023-02-01T01:31:09;9.77;;;5.28;;
29168;SDS011;16219;42.864;23.360;2023-02-01T01:33:37;6.38;;;4.63;;
29168;SDS011;16219;42.864;23.360;2023-02-01T01:36:06;6.72;;;4.55;;
29168;SDS011;16219;42.864;23.360;2023-02-01T01:38:36;6.68;;;3.25;;
29168;SDS011;16219;42.864;23.360;2023-02-01T01:41:04;9.57;;;4.68;;
29168;SDS011;16219;42.864;23.360;2023-02-01T01:43:46;11.57;;;4.90;;
29168;SDS011;16219;42.864;23.360;2023-02-01T01:46:25;8.13;;;5.03;;
29168;SDS011;16219;42.864;23.360;2023-02-01T01:48:59;9.32;;;4.32;;
29168;SDS011;16219;42.864;23.360;2023-02-01T01:51:34;17.65;;;4.88;;
29168;SDS011;16219;42.864;23.360;2023-02-01T01:54:06;8.88;;;4.85;;
29168;SDS011;16219;42.864;23.360;2023-02-01T01:56:38;6.93;;;4.57;;
29168;SDS011;16219;42.864;23.360;2023-02-01T01:59:06;6.82;;;4.10;;
29168;SDS011;16219;42.864;23.360;2023-02-01T02:01:36;3.72;;;3.40;;
29168;SDS011;16219;42.864;23.360;2023-02-01T02:04:03;6.68;;;4.50;;
29168;SDS011;16219;42.864;23.360;2023-02-01T02:06:34;5.30;;;4.03;;
29168;SDS011;16219;42.864;23.360;2023-02-01T02:09:07;4.22;;;3.83;;
29168;SDS011;16219;42.864;23.360;2023-02-01T02:11:34;10.65;;;4.07;;
29168;SDS011;16219;42.864;23.360;2023-02-01T02:14:01;7.82;;;3.88;;
29168;SDS011;16219;42.864;23.360;2023-02-01T02:26:06;4.32;;;3.17;;
29168;SDS011;16219;42.864;23.360;2023-02-01T02:29:03;7.40;;;3.80;;
29168;SDS011;16219;42.864;23.360;2023-02-01T02:34:56;3.72;;;3.10;;
29168;SDS011;16219;42.864;23.360;2023-02-01T02:37:33;3.30;;;3.08;;
29168;SDS011;16219;42.864;23.360;2023-02-01T02:40:07;9.85;;;3.65;;
29168;SDS011;16219;42.864;23.360;2023-02-01T02:42:43;5.30;;;3.03;;
29168;SDS011;16219;42.864;23.360;2023-02-01T02:45:38;2.67;;;2.00;;
29168;SDS011;16219;42.864;23.360;2023-02-01T02:48:27;4.55;;;1.55;;
29168;SDS011;16219;42.864;23.360;2023-02-01T02:51:05;3.33;;;1.52;;
29168;SDS011;16219;42.864;23.360;2023-02-01T02:53:56;1.05;;;0.98;;
29168;SDS011;16219;42.864;23.360;2023-02-01T02:56:45;1.15;;;0.95;;
29168;SDS011;16219;42.864;23.360;2023-02-01T02:59:31;1.48;;;1.38;;
29168;SDS011;16219;42.864;23.360;2023-02-01T03:02:18;1.35;;;1.25;;
29168;SDS011;16219;42.864;23.360;2023-02-01T03:05:03;1.05;;;0.95;;
29168;SDS011;16219;42.864;23.360;2023-02-01T03:07:52;0.63;;;0.63;;
29168;SDS011;16219;42.864;23.360;2023-02-01T03:10:24;1.52;;;1.27;;
29168;SDS011;16219;42.864;23.360;2023-02-01T03:12:59;2.78;;;1.15;;
29168;SDS011;16219;42.864;23.360;2023-02-01T03:15:31;6.25;;;2.15;;
29168;SDS011;16219;42.864;23.360;2023-02-01T03:18:02;4.43;;;2.65;;
29168;SDS011;16219;42.864;23.360;2023-02-01T03:20:33;1.52;;;1.17;;
29168;SDS011;16219;42.864;23.360;2023-02-01T03:23:04;1.00;;;1.00;;
29168;SDS011;16219;42.864;23.360;2023-02-01T03:25:33;4.70;;;1.70;;
29168;SDS011;16219;42.864;23.360;2023-02-01T03:28:03;1.27;;;1.13;;
29168;SDS011;16219;42.864;23.360;2023-02-01T03:30:34;0.82;;;0.82;;
29168;SDS011;16219;42.864;23.360;2023-02-01T03:33:04;1.10;;;1.10;;
29168;SDS011;16219;42.864;23.360;2023-02-01T03:35:40;0.88;;;0.88;;
29168;SDS011;16219;42.864;23.360;2023-02-01T03:38:16;1.27;;;1.13;;
29168;SDS011;16219;42.864;23.360;2023-02-01T03:40:50;1.50;;;1.23;;
29168;SDS011;16219;42.864;23.360;2023-02-01T03:43:21;1.08;;;0.98;;
29168;SDS011;16219;42.864;23.360;2023-02-01T03:45:52;1.13;;;1.05;;
29168;SDS011;16219;42.864;23.360;2023-02-01T03:48:26;0.63;;;0.63;;
29168;SDS011;16219;42.864;23.360;2023-02-01T03:50:56;0.70;;;0.70;;
29168;SDS011;16219;42.864;23.360;2023-02-01T03:53:28;0.70;;;0.70;;
29168;SDS011;16219;42.864;23.360;2023-02-01T03:55:57;1.52;;;1.42;;
29168;SDS011;16219;42.864;23.360;2023-02-01T03:58:24;1.77;;;1.33;;
29168;SDS011;16219;42.864;23.360;2023-02-01T04:00:52;3.22;;;1.40;;
29168;SDS011;16219;42.864;23.360;2023-02-01T04:03:21;0.93;;;0.93;;
29168;SDS011;16219;42.864;23.360;2023-02-01T04:05:48;1.35;;;1.25;;
29168;SDS011;16219;42.864;23.360;2023-02-01T04:08:16;0.90;;;0.90;;
29168;SDS011;16219;42.864;23.360;2023-02-01T04:10:44;1.13;;;1.10;;
29168;SDS011;16219;42.864;23.360;2023-02-01T04:13:12;4.43;;;1.52;;
29168;SDS011;16219;42.864;23.360;2023-02-01T04:15:39;1.95;;;1.35;;
29168;SDS011;16219;42.864;23.360;2023-02-01T04:18:06;1.02;;;1.02;;
29168;SDS011;16219;42.864;23.360;2023-02-01T04:20:34;4.50;;;2.85;;
29168;SDS011;16219;42.864;23.360;2023-02-01T04:23:01;2.22;;;1.83;;
29168;SDS011;16219;42.864;23.360;2023-02-01T04:25:28;1.73;;;1.58;;
29168;SDS011;16219;42.864;23.360;2023-02-01T04:27:57;1.73;;;1.63;;
29168;SDS011;16219;42.864;23.360;2023-02-01T04:30:24;1.60;;;1.50;;
29168;SDS011;16219;42.864;23.360;2023-02-01T04:32:51;1.05;;;1.02;;
29168;SDS011;16219;42.864;23.360;2023-02-01T04:35:18;2.67;;;1.85;;
29168;SDS011;16219;42.864;23.360;2023-02-01T04:37:45;7.32;;;3.38;;
29168;SDS011;16219;42.864;23.360;2023-02-01T04:40:12;2.22;;;1.77;;
29168;SDS011;16219;42.864;23.360;2023-02-01T04:42:39;2.20;;;1.48;;
29168;SDS011;16219;42.864;23.360;2023-02-01T04:45:09;0.95;;;0.95;;
29168;SDS011;16219;42.864;23.360;2023-02-01T04:47:36;2.22;;;1.60;;
29168;SDS011;16219;42.864;23.360;2023-02-01T04:50:07;1.50;;;1.40;;
29168;SDS011;16219;42.864;23.360;2023-02-01T04:52:36;1.60;;;1.50;;
29168;SDS011;16219;42.864;23.360;2023-02-01T04:55:03;0.82;;;0.75;;
29168;SDS011;16219;42.864;23.360;2023-02-01T04:57:30;1.45;;;1.25;;
29168;SDS011;16219;42.864;23.360;2023-02-01T04:59:57;2.42;;;1.80;;
29168;SDS011;16219;42.864;23.360;2023-02-01T05:02:26;1.17;;;1.10;;
29168;SDS011;16219;42.864;23.360;2023-02-01T05:04:53;2.70;;;1.63;;
29168;SDS011;16219;42.864;23.360;2023-02-01T05:07:21;2.78;;;1.50;;
29168;SDS011;16219;42.864;23.360;2023-02-01T05:09:48;1.27;;;1.23;;
29168;SDS011;16219;42.864;23.360;2023-02-01T05:12:14;1.85;;;1.40;;
29168;SDS011;16219;42.864;23.360;2023-02-01T05:14:59;24.90;;;1.65;;
29168;SDS011;16219;42.864;23.360;2023-02-01T05:17:27;2.30;;;1.83;;
29168;SDS011;16219;42.864;23.360;2023-02-01T05:19:54;2.60;;;1.67;;
29168;SDS011;16219;42.864;23.360;2023-02-01T05:22:21;1.23;;;1.10;;
29168;SDS011;16219;42.864;23.360;2023-02-01T05:24:48;1.08;;;1.05;;
29168;SDS011;16219;42.864;23.360;2023-02-01T05:27:15;1.23;;;1.13;;
29168;SDS011;16219;42.864;23.360;2023-02-01T05:29:42;3.33;;;1.95;;
29168;SDS011;16219;42.864;23.360;2023-02-01T05:32:09;2.20;;;1.48;;
29168;SDS011;16219;42.864;23.360;2023-02-01T05:34:38;1.70;;;1.33;;
29168;SDS011;16219;42.864;23.360;2023-02-01T05:37:05;1.95;;;1.60;;
29168;SDS011;16219;42.864;23.360;2023-02-01T05:39:32;1.10;;;1.00;;
29168;SDS011;16219;42.864;23.360;2023-02-01T05:41:59;1.90;;;1.80;;
29168;SDS011;16219;42.864;23.360;2023-02-01T05:44:26;3.38;;;1.85;;
29168;SDS011;16219;42.864;23.360;2023-02-01T05:46:53;1.23;;;1.23;;
29168;SDS011;16219;42.864;23.360;2023-02-01T05:49:20;1.77;;;1.67;;
29168;SDS011;16219;42.864;23.360;2023-02-01T05:51:49;6.65;;;2.10;;
29168;SDS011;16219;42.864;23.360;2023-02-01T05:54:16;1.65;;;1.55;;
29168;SDS011;16219;42.864;23.360;2023-02-01T05:56:43;4.03;;;2.40;;
29168;SDS011;16219;42.864;23.360;2023-02-01T05:59:10;3.22;;;2.25;;
29168;SDS011;16219;42.864;23.360;2023-02-01T06:01:37;1.08;;;1.08;;
29168;SDS011;16219;42.864;23.360;2023-02-01T06:04:04;1.85;;;1.55;;
29168;SDS011;16219;42.864;23.360;2023-02-01T06:06:31;2.25;;;1.60;;
29168;SDS011;16219;42.864;23.360;2023-02-01T06:09:00;5.10;;;1.80;;
29168;SDS011;16219;42.864;23.360;2023-02-01T06:11:27;1.95;;;1.70;;
29168;SDS011;16219;42.864;23.360;2023-02-01T06:13:55;2.47;;;1.98;;
29168;SDS011;16219;42.864;23.360;2023-02-01T06:16:22;1.58;;;1.48;;
29168;SDS011;16219;42.864;23.360;2023-02-01T06:18:49;3.28;;;1.55;;
29168;SDS011;16219;42.864;23.360;2023-02-01T06:21:16;1.92;;;1.83;;
29168;SDS011;16219;42.864;23.360;2023-02-01T06:23:49;2.72;;;2.42;;
29168;SDS011;16219;42.864;23.360;2023-02-01T06:26:17;3.38;;;2.13;;
29168;SDS011;16219;42.864;23.360;2023-02-01T06:28:44;2.63;;;2.42;;
29168;SDS011;16219;42.864;23.360;2023-02-01T06:31:11;1.85;;;1.75;;
29168;SDS011;16219;42.864;23.360;2023-02-01T06:33:38;2.22;;;1.75;;
29168;SDS011;16219;42.864;23.360;2023-02-01T06:36:06;2.17;;;1.98;;
29168;SDS011;16219;42.864;23.360;2023-02-01T06:38:36;2.53;;;1.83;;
29168;SDS011;16219;42.864;23.360;2023-02-01T06:41:04;1.45;;;1.35;;
29168;SDS011;16219;42.864;23.360;2023-02-01T06:43:33;1.75;;;1.63;;
29168;SDS011;16219;42.864;23.360;2023-02-01T06:46:00;2.35;;;2.17;;
29168;SDS011;16219;42.864;23.360;2023-02-01T06:48:28;3.90;;;2.38;;
29168;SDS011;16219;42.864;23.360;2023-02-01T06:50:56;3.20;;;2.10;;
29168;SDS011;16219;42.864;23.360;2023-02-01T06:53:23;3.60;;;1.77;;
29168;SDS011;16219;42.864;23.360;2023-02-01T06:55:51;3.20;;;2.10;;
29168;SDS011;16219;42.864;23.360;2023-02-01T06:58:19;5.20;;;2.67;;
29168;SDS011;16219;42.864;23.360;2023-02-01T07:00:48;1.45;;;1.30;;
29168;SDS011;16219;42.864;23.360;2023-02-01T07:03:15;1.27;;;1.23;;
29168;SDS011;16219;42.864;23.360;2023-02-01T07:05:43;1.42;;;1.33;;
29168;SDS011;16219;42.864;23.360;2023-02-01T07:08:10;1.27;;;1.23;;
29168;SDS011;16219;42.864;23.360;2023-02-01T07:10:37;3.85;;;1.50;;
29168;SDS011;16219;42.864;23.360;2023-02-01T07:13:04;2.50;;;2.03;;
29168;SDS011;16219;42.864;23.360;2023-02-01T07:15:31;3.50;;;1.92;;
29168;SDS011;16219;42.864;23.360;2023-02-01T07:18:00;1.92;;;1.75;;
29168;SDS011;16219;42.864;23.360;2023-02-01T07:20:27;5.50;;;2.38;;
29168;SDS011;16219;42.864;23.360;2023-02-01T07:22:55;1.65;;;1.55;;
29168;SDS011;16219;42.864;23.360;2023-02-01T07:25:23;1.65;;;1.55;;
29168;SDS011;16219;42.864;23.360;2023-02-01T07:27:50;1.13;;;1.10;;
29168;SDS011;16219;42.864;23.360;2023-02-01T07:30:18;1.17;;;1.08;;
29168;SDS011;16219;42.864;23.360;2023-02-01T07:32:45;1.70;;;1.35;;
29168;SDS011;16219;42.864;23.360;2023-02-01T07:35:13;1.02;;;0.98;;
29168;SDS011;16219;42.864;23.360;2023-02-01T07:37:41;1.65;;;1.17;;
29168;SDS011;16219;42.864;23.360;2023-02-01T07:40:08;3.10;;;1.38;;
29168;SDS011;16219;42.864;23.360;2023-02-01T07:42:36;3.35;;;1.67;;
29168;SDS011;16219;42.864;23.360;2023-02-01T07:45:04;1.67;;;1.33;;
29168;SDS011;16219;42.864;23.360;2023-02-01T07:47:31;1.45;;;1.35;;
29168;SDS011;16219;42.864;23.360;2023-02-01T07:49:58;7.70;;;2.50;;
29168;SDS011;16219;42.864;23.360;2023-02-01T07:52:28;3.22;;;1.80;;
29168;SDS011;16219;42.864;23.360;2023-02-01T07:54:55;3.83;;;1.33;;
29168;SDS011;16219;42.864;23.360;2023-02-01T07:57:23;2.83;;;1.30;;
29168;SDS011;16219;42.864;23.360;2023-02-01T07:59:50;2.20;;;1.52;;
29168;SDS011;16219;42.864;23.360;2023-02-01T08:02:40;1.20;;;1.10;;
29168;SDS011;16219;42.864;23.360;2023-02-01T08:05:07;2.55;;;1.80;;
29168;SDS011;16219;42.864;23.360;2023-02-01T08:07:36;1.75;;;1.38;;
29168;SDS011;16219;42.864;23.360;2023-02-01T08:10:03;2.20;;;1.02;;
29168;SDS011;16219;42.864;23.360;2023-02-01T08:12:36;1.27;;;1.23;;
29168;SDS011;16219;42.864;23.360;2023-02-01T08:15:03;1.17;;;1.17;;
29168;SDS011;16219;42.864;23.360;2023-02-01T08:17:31;2.00;;;1.27;;
29168;SDS011;16219;42.864;23.360;2023-02-01T08:19:58;1.75;;;1.50;;
29168;SDS011;16219;42.864;23.360;2023-02-01T08:22:26;1.20;;;1.10;;
29168;SDS011;16219;42.864;23.360;2023-02-01T08:24:58;1.83;;;1.73;;
29168;SDS011;16219;42.864;23.360;2023-02-01T08:27:26;1.52;;;1.25;;
29168;SDS011;16219;42.864;23.360;2023-02-01T08:29:53;1.25;;;1.15;;
29168;SDS011;16219;42.864;23.360;2023-02-01T08:32:21;1.35;;;1.25;;
29168;SDS011;16219;42.864;23.360;2023-02-01T08:34:48;2.20;;;1.40;;
29168;SDS011;16219;42.864;23.360;2023-02-01T08:37:15;1.98;;;1.42;;
29168;SDS011;16219;42.864;23.360;2023-02-01T08:39:42;1.45;;;1.15;;
29168;SDS011;16219;42.864;23.360;2023-02-01T08:42:11;2.53;;;1.67;;
29168;SDS011;16219;42.864;23.360;2023-02-01T08:45:10;1.92;;;1.75;;
29168;SDS011;16219;42.864;23.360;2023-02-01T08:47:37;1.73;;;1.30;;
29168;SDS011;16219;42.864;23.360;2023-02-01T08:50:05;1.13;;;1.10;;
29168;SDS011;16219;42.864;23.360;2023-02-01T08:52:32;3.63;;;2.33;;
29168;SDS011;16219;42.864;23.360;2023-02-01T08:54:59;4.25;;;2.10;;
29168;SDS011;16219;42.864;23.360;2023-02-01T08:57:28;3.13;;;2.45;;
29168;SDS011;16219;42.864;23.360;2023-02-01T08:59:56;1.55;;;1.45;;
29168;SDS011;16219;42.864;23.360;2023-02-01T09:02:23;1.45;;;1.02;;
29168;SDS011;16219;42.864;23.360;2023-02-01T09:04:50;1.20;;;1.10;;
29168;SDS011;16219;42.864;23.360;2023-02-01T09:07:17;3.97;;;2.45;;
29168;SDS011;16219;42.864;23.360;2023-02-01T09:09:45;2.40;;;1.48;;
29168;SDS011;16219;42.864;23.360;2023-02-01T09:12:12;1.20;;;1.20;;
29168;SDS011;16219;42.864;23.360;2023-02-01T09:14:40;1.00;;;1.00;;
29168;SDS011;16219;42.864;23.360;2023-02-01T09:17:07;0.85;;;0.85;;
29168;SDS011;16219;42.864;23.360;2023-02-01T09:19:35;1.55;;;1.02;;
29168;SDS011;16219;42.864;23.360;2023-02-01T09:22:02;1.02;;;0.93;;
29168;SDS011;16219;42.864;23.360;2023-02-01T09:24:29;3.85;;;1.60;;
29168;SDS011;16219;42.864;23.360;2023-02-01T09:26:56;2.28;;;1.55;;
29168;SDS011;16219;42.864;23.360;2023-02-01T09:29:23;0.80;;;0.80;;
29168;SDS011;16219;42.864;23.360;2023-02-01T09:31:52;1.02;;;0.70;;
29168;SDS011;16219;42.864;23.360;2023-02-01T09:34:19;4.03;;;1.52;;
29168;SDS011;16219;42.864;23.360;2023-02-01T09:36:46;1.75;;;1.50;;
29168;SDS011;16219;42.864;23.360;2023-02-01T09:39:13;0.68;;;0.68;;
29168;SDS011;16219;42.864;23.360;2023-02-01T09:41:42;1.27;;;1.17;;
29168;SDS011;16219;42.864;23.360;2023-02-01T09:44:22;1.02;;;1.00;;
29168;SDS011;16219;42.864;23.360;2023-02-01T09:47:08;0.70;;;0.70;;
29168;SDS011;16219;42.864;23.360;2023-02-01T09:49:40;2.65;;;1.13;;
29168;SDS011;16219;42.864;23.360;2023-02-01T09:52:15;0.50;;;0.50;;
29168;SDS011;16219;42.864;23.360;2023-02-01T09:54:51;8.90;;;1.77;;
29168;SDS011;16219;42.864;23.360;2023-02-01T09:57:28;1.25;;;1.15;;
29168;SDS011;16219;42.864;23.360;2023-02-01T10:00:09;1.23;;;1.13;;
29168;SDS011;16219;42.864;23.360;2023-02-01T10:02:45;0.70;;;0.70;;
29168;SDS011;16219;42.864;23.360;2023-02-01T10:05:13;0.98;;;0.98;;
29168;SDS011;16219;42.864;23.360;2023-02-01T10:07:44;0.88;;;0.88;;
29168;SDS011;16219;42.864;23.360;2023-02-01T10:10:24;0.80;;;0.80;;
29168;SDS011;16219;42.864;23.360;2023-02-01T10:13:06;0.55;;;0.55;;
29168;SDS011;16219;42.864;23.360;2023-02-01T10:15:47;1.05;;;0.55;;
29168;SDS011;16219;42.864;23.360;2023-02-01T10:18:39;0.82;;;0.77;;
29168;SDS011;16219;42.864;23.360;2023-02-01T10:21:32;1.30;;;0.75;;
29168;SDS011;16219;42.864;23.360;2023-02-01T10:24:15;2.58;;;0.98;;
29168;SDS011;16219;42.864;23.360;2023-02-01T10:26:52;0.88;;;0.85;;
29168;SDS011;16219;42.864;23.360;2023-02-01T10:29:28;1.75;;;0.70;;
29168;SDS011;16219;42.864;23.360;2023-02-01T10:32:01;5.15;;;1.40;;
29168;SDS011;16219;42.864;23.360;2023-02-01T10:34:31;1.17;;;0.85;;
29168;SDS011;16219;42.864;23.360;2023-02-01T10:37:02;1.08;;;0.75;;
29168;SDS011;16219;42.864;23.360;2023-02-01T10:39:44;0.98;;;0.93;;
29168;SDS011;16219;42.864;23.360;2023-02-01T10:42:12;0.82;;;0.82;;
29168;SDS011;16219;42.864;23.360;2023-02-01T10:44:40;3.10;;;2.00;;
29168;SDS011;16219;42.864;23.360;2023-02-01T10:47:10;9.60;;;1.13;;
29168;SDS011;16219;42.864;23.360;2023-02-01T10:49:41;2.92;;;1.48;;
29168;SDS011;16219;42.864;23.360;2023-02-01T10:52:15;0.70;;;0.70;;
29168;SDS011;16219;42.864;23.360;2023-02-01T10:54:46;0.80;;;0.80;;
29168;SDS011;16219;42.864;23.360;2023-02-01T10:57:19;0.68;;;0.63;;
29168;SDS011;16219;42.864;23.360;2023-02-01T10:59:51;1.45;;;0.82;;
29168;SDS011;16219;42.864;23.360;2023-02-01T11:02:20;4.72;;;1.15;;
29168;SDS011;16219;42.864;23.360;2023-02-01T11:04:59;0.35;;;0.35;;
29168;SDS011;16219;42.864;23.360;2023-02-01T11:07:27;0.52;;;0.52;;
29168;SDS011;16219;42.864;23.360;2023-02-01T11:09:56;0.70;;;0.70;;
29168;SDS011;16219;42.864;23.360;2023-02-01T11:12:28;0.40;;;0.40;;
29168;SDS011;16219;42.864;23.360;2023-02-01T11:14:58;1.97;;;1.33;;
29168;SDS011;16219;42.864;23.360;2023-02-01T11:17:31;1.60;;;0.93;;
29168;SDS011;16219;42.864;23.360;2023-02-01T11:20:03;1.23;;;1.00;;
29168;SDS011;16219;42.864;23.360;2023-02-01T11:22:39;0.38;;;0.38;;
29168;SDS011;16219;42.864;23.360;2023-02-01T11:25:13;6.07;;;1.15;;
29168;SDS011;16219;42.864;23.360;2023-02-01T11:27:42;0.82;;;0.82;;
29168;SDS011;16219;42.864;23.360;2023-02-01T11:30:13;0.52;;;0.52;;
29168;SDS011;16219;42.864;23.360;2023-02-01T11:32:44;0.55;;;0.55;;
29168;SDS011;16219;42.864;23.360;2023-02-01T11:35:15;0.43;;;0.43;;
29168;SDS011;16219;42.864;23.360;2023-02-01T11:37:48;1.27;;;1.17;;
29168;SDS011;16219;42.864;23.360;2023-02-01T11:40:25;0.85;;;0.85;;
29168;SDS011;16219;42.864;23.360;2023-02-01T11:42:55;0.75;;;0.75;;
29168;SDS011;16219;42.864;23.360;2023-02-01T11:45:27;1.10;;;0.40;;
29168;SDS011;16219;42.864;23.360;2023-02-01T11:47:55;0.40;;;0.40;;
29168;SDS011;16219;42.864;23.360;2023-02-01T11:50:28;0.70;;;0.60;;
29168;SDS011;16219;42.864;23.360;2023-02-01T11:53:15;1.25;;;1.00;;
29168;SDS011;16219;42.864;23.360;2023-02-01T11:55:55;1.17;;;0.63;;
29168;SDS011;16219;42.864;23.360;2023-02-01T11:58:35;0.60;;;0.60;;
29168;SDS011;16219;42.864;23.360;2023-02-01T12:07:13;0.80;;;0.60;;
29168;SDS011;16219;42.864;23.360;2023-02-01T12:09:48;0.73;;;0.73;;
29168;SDS011;16219;42.864;23.360;2023-02-01T12:12:24;0.57;;;0.57;;
29168;SDS011;16219;42.864;23.360;2023-02-01T12:15:10;0.63;;;0.55;;
29168;SDS011;16219;42.864;23.360;2023-02-01T12:18:03;0.50;;;0.50;;
29168;SDS011;16219;42.864;23.360;2023-02-01T12:20:52;0.52;;;0.52;;
29168;SDS011;16219;42.864;23.360;2023-02-01T12:23:49;0.75;;;0.68;;
29168;SDS011;16219;42.864;23.360;2023-02-01T12:32:11;0.40;;;0.40;;
29168;SDS011;16219;42.864;23.360;2023-02-01T12:34:55;0.93;;;0.70;;
29168;SDS011;16219;42.864;23.360;2023-02-01T12:37:42;0.57;;;0.57;;
29168;SDS011;16219;42.864;23.360;2023-02-01T12:40:25;0.43;;;0.43;;
29168;SDS011;16219;42.864;23.360;2023-02-01T12:43:01;1.30;;;1.20;;
29168;SDS011;16219;42.864;23.360;2023-02-01T12:45:32;0.60;;;0.60;;
29168;SDS011;16219;42.864;23.360;2023-02-01T12:48:08;1.23;;;0.80;;
29168;SDS011;16219;42.864;23.360;2023-02-01T12:50:49;1.00;;;0.88;;
29168;SDS011;16219;42.864;23.360;2023-02-01T12:53:21;0.75;;;0.75;;
29168;SDS011;16219;42.864;23.360;2023-02-01T12:55:53;0.30;;;0.30;;
29168;SDS011;16219;42.864;23.360;2023-02-01T12:58:22;0.47;;;0.47;;
29168;SDS011;16219;42.864;23.360;2023-02-01T13:00:55;0.47;;;0.47;;
29168;SDS011;16219;42.864;23.360;2023-02-01T13:03:29;1.75;;;1.05;;
29168;SDS011;16219;42.864;23.360;2023-02-01T13:06:04;0.85;;;0.85;;
29168;SDS011;16219;42.864;23.360;2023-02-01T13:08:39;0.47;;;0.47;;
29168;SDS011;16219;42.864;23.360;2023-02-01T13:11:12;0.80;;;0.77;;
29168;SDS011;16219;42.864;23.360;2023-02-01T13:13:46;0.52;;;0.52;;
29168;SDS011;16219;42.864;23.360;2023-02-01T13:16:21;1.23;;;1.15;;
29168;SDS011;16219;42.864;23.360;2023-02-01T13:19:02;1.52;;;0.85;;
29168;SDS011;16219;42.864;23.360;2023-02-01T13:21:37;1.10;;;0.93;;
29168;SDS011;16219;42.864;23.360;2023-02-01T13:24:10;1.52;;;0.73;;
29168;SDS011;16219;42.864;23.360;2023-02-01T13:26:54;0.70;;;0.70;;
29168;SDS011;16219;42.864;23.360;2023-02-01T13:29:22;0.30;;;0.30;;
29168;SDS011;16219;42.864;23.360;2023-02-01T13:31:54;0.35;;;0.35;;
29168;SDS011;16219;42.864;23.360;2023-02-01T13:34:43;1.77;;;1.15;;
29168;SDS011;16219;42.864;23.360;2023-02-01T13:37:26;2.25;;;1.15;;
29168;SDS011;16219;42.864;23.360;2023-02-01T13:40:06;1.00;;;0.82;;
29168;SDS011;16219;42.864;23.360;2023-02-01T13:42:50;0.40;;;0.40;;
29168;SDS011;16219;42.864;23.360;2023-02-01T13:45:20;0.52;;;0.52;;
29168;SDS011;16219;42.864;23.360;2023-02-01T13:47:50;0.57;;;0.57;;
29168;SDS011;16219;42.864;23.360;2023-02-01T13:50:21;1.05;;;0.88;;
29168;SDS011;16219;42.864;23.360;2023-02-01T13:52:52;1.00;;;0.75;;
29168;SDS011;16219;42.864;23.360;2023-02-01T13:55:31;1.02;;;0.85;;
29168;SDS011;16219;42.864;23.360;2023-02-01T13:58:03;0.60;;;0.60;;
29168;SDS011;16219;42.864;23.360;2023-02-01T14:00:37;1.27;;;0.65;;
29168;SDS011;16219;42.864;23.360;2023-02-01T14:09:14;1.73;;;1.52;;
29168;SDS011;16219;42.864;23.360;2023-02-01T14:15:20;0.38;;;0.38;;
29168;SDS011;16219;42.864;23.360;2023-02-01T14:17:50;5.75;;;2.72;;
29168;SDS011;16219;42.864;23.360;2023-02-01T14:20:36;3.97;;;3.17;;
29168;SDS011;16219;42.864;23.360;2023-02-01T14:23:11;1.30;;;1.20;;
29168;SDS011;16219;42.864;23.360;2023-02-01T14:25:41;1.55;;;1.40;;
29168;SDS011;16219;42.864;23.360;2023-02-01T14:28:12;1.52;;;1.40;;
29168;SDS011;16219;42.864;23.360;2023-02-01T14:30:53;1.92;;;1.40;;
29168;SDS011;16219;42.864;23.360;2023-02-01T14:33:23;1.10;;;0.75;;
29168;SDS011;16219;42.864;23.360;2023-02-01T14:36:04;3.15;;;1.20;;
29168;SDS011;16219;42.864;23.360;2023-02-01T14:38:35;5.68;;;2.47;;
29168;SDS011;16219;42.864;23.360;2023-02-01T14:41:16;1.63;;;1.27;;
29168;SDS011;16219;42.864;23.360;2023-02-01T14:52:57;0.85;;;0.73;;
29168;SDS011;16219;42.864;23.360;2023-02-01T14:55:37;0.85;;;0.85;;
29168;SDS011;16219;42.864;23.360;2023-02-01T15:01:00;2.10;;;1.95;;
29168;SDS011;16219;42.864;23.360;2023-02-01T15:03:41;1.42;;;0.73;;
29168;SDS011;16219;42.864;23.360;2023-02-01T15:06:26;1.85;;;1.58;;
29168;SDS011;16219;42.864;23.360;2023-02-01T15:08:58;5.93;;;2.05;;
29168;SDS011;16219;42.864;23.360;2023-02-01T15:11:28;2.72;;;1.48;;
29168;SDS011;16219;42.864;23.360;2023-02-01T15:13:55;1.13;;;0.98;;
29168;SDS011;16219;42.864;23.360;2023-02-01T15:16:25;0.88;;;0.80;;
29168;SDS011;16219;42.864;23.360;2023-02-01T15:19:09;0.70;;;0.70;;
29168;SDS011;16219;42.864;23.360;2023-02-01T15:24:20;0.65;;;0.65;;
29168;SDS011;16219;42.864;23.360;2023-02-01T15:26:49;1.17;;;1.10;;
29168;SDS011;16219;42.864;23.360;2023-02-01T15:29:17;0.57;;;0.57;;
29168;SDS011;16219;42.864;23.360;2023-02-01T15:31:46;2.17;;;1.23;;
29168;SDS011;16219;42.864;23.360;2023-02-01T15:34:15;1.15;;;1.05;;
29168;SDS011;16219;42.864;23.360;2023-02-01T15:36:43;1.10;;;1.00;;
29168;SDS011;16219;42.864;23.360;2023-02-01T15:39:20;1.25;;;1.15;;
29168;SDS011;16219;42.864;23.360;2023-02-01T15:41:51;0.90;;;0.90;;
29168;SDS011;16219;42.864;23.360;2023-02-01T15:47:07;1.45;;;0.77;;
29168;SDS011;16219;42.864;23.360;2023-02-01T15:49:44;4.63;;;1.95;;